Time;durP1;ratioP1;P1;durP2;ratioP2;P2;SDS_P1;SDS_P2;PMS_P1;PMS_P2;Temp;Humidity;BMP_temperature;BMP_pressure;BME280_temperature;BME280_humidity;BME280_pressure;Samples;Min_cycle;Max_cycle;Signal;HPM_P1;HPM_P2
2022/06/20 00:00:39;;;;;;;10.20;2.28;;;13.90;99.90;;;;;;5040605;28;20039;-80
2022/06/20 00:03:09;;;;;;;15.70;2.83;;;13.90;99.90;;;;;;5056629;28;20040;-78
2022/06/20 00:05:38;;;;;;;10.93;2.50;;;13.80;99.90;;;;;;5039845;28;20487;-79
2022/06/20 00:08:05;;;;;;;10.07;2.50;;;13.90;99.90;;;;;;5040422;28;20037;-80
2022/06/20 00:10:31;;;;;;;14.93;2.47;;;13.80;99.90;;;;;;5056535;28;20044;-78
2022/06/20 00:12:58;;;;;;;11.50;2.40;;;13.80;99.90;;;;;;5040209;28;20110;-80
2022/06/20 00:15:32;;;;;;;13.48;2.13;;;13.80;99.90;;;;;;5040414;28;20491;-78
2022/06/20 00:18:00;;;;;;;20.23;2.80;;;13.80;99.90;;;;;;5056674;28;20080;-80
2022/06/20 00:20:26;;;;;;;11.43;2.30;;;13.80;99.90;;;;;;5056807;28;20096;-79
2022/06/20 00:22:53;;;;;;;16.27;2.83;;;13.90;99.90;;;;;;5041116;28;20052;-79
2022/06/20 00:25:19;;;;;;;11.63;2.15;;;13.80;99.90;;;;;;5020038;28;20083;-77
2022/06/20 00:27:45;;;;;;;8.55;2.25;;;13.80;99.90;;;;;;5049163;28;20057;-80
2022/06/20 00:30:14;;;;;;;14.52;2.63;;;13.80;99.90;;;;;;5085939;28;20044;-80
2022/06/20 00:32:40;;;;;;;11.40;2.30;;;13.80;99.90;;;;;;5056164;28;20047;-80
2022/06/20 00:35:06;;;;;;;11.75;2.30;;;14.20;99.90;;;;;;5072157;28;20496;-79
2022/06/20 00:37:32;;;;;;;9.98;2.25;;;13.80;99.90;;;;;;5056253;28;20044;-78
2022/06/20 00:39:58;;;;;;;9.82;1.92;;;13.80;99.90;;;;;;5072608;28;20033;-80
2022/06/20 00:42:27;;;;;;;11.23;2.63;;;13.70;99.90;;;;;;5056002;28;20538;-79
2022/06/20 00:44:58;;;;;;;7.10;1.98;;;13.80;99.90;;;;;;5073086;28;20048;-80
2022/06/20 00:47:29;;;;;;;15.38;2.47;;;13.70;99.90;;;;;;5073029;28;20404;-79
2022/06/20 00:50:20;;;;;;;7.65;2.00;;;13.70;99.90;;;;;;5055883;28;20040;-81
2022/06/20 00:52:56;;;;;;;14.63;2.53;;;13.70;99.90;;;;;;4998653;28;20140;-81
2022/06/20 00:55:47;;;;;;;10.18;2.40;;;13.70;99.90;;;;;;5015905;28;20049;-78
2022/06/20 00:58:30;;;;;;;9.95;2.28;;;13.60;99.90;;;;;;5025274;28;20053;-79
2022/06/20 01:00:58;;;;;;;10.02;2.38;;;13.70;99.90;;;;;;5016391;28;20046;-80
2022/06/20 01:03:27;;;;;;;11.98;2.25;;;13.70;99.90;;;;;;5001815;28;20115;-78
2022/06/20 01:05:59;;;;;;;13.70;2.58;;;13.60;99.90;;;;;;5011785;28;20045;-78
2022/06/20 01:08:44;;;;;;;12.80;2.10;;;13.50;99.90;;;;;;4994750;28;20045;-78
2022/06/20 01:11:17;;;;;;;7.10;2.00;;;13.50;99.90;;;;;;4995186;28;20103;-79
2022/06/20 01:13:45;;;;;;;11.20;2.20;;;13.40;99.90;;;;;;4999734;28;20113;-77
2022/06/20 01:16:25;;;;;;;12.80;2.05;;;13.40;99.90;;;;;;5001718;28;20384;-77
2022/06/20 01:18:52;;;;;;;10.23;2.00;;;13.40;99.90;;;;;;5022841;28;20088;-79
2022/06/20 01:21:31;;;;;;;10.75;2.20;;;13.30;99.90;;;;;;5025063;28;20029;-80
2022/06/20 01:24:27;;;;;;;10.00;2.05;;;13.30;99.90;;;;;;4995453;28;20064;-79
2022/06/20 01:27:11;;;;;;;9.88;2.35;;;13.20;99.90;;;;;;5030833;28;20084;-79
2022/06/20 01:29:36;;;;;;;9.27;2.25;;;13.10;99.90;;;;;;5039423;28;20056;-80
2022/06/20 01:32:04;;;;;;;10.65;1.70;;;13.20;99.90;;;;;;5055598;28;20476;-78
2022/06/20 01:34:31;;;;;;;8.82;2.13;;;13.10;99.90;;;;;;5054603;28;20040;-78
2022/06/20 01:39:47;;;;;;;10.77;2.22;;;13.00;99.90;;;;;;5071682;28;20040;-79
2022/06/20 01:42:20;;;;;;;12.35;2.20;;;12.90;99.90;;;;;;5071728;28;20063;-80
2022/06/20 01:44:46;;;;;;;8.35;1.88;;;12.80;99.90;;;;;;5055234;28;20086;-78
2022/06/20 01:47:15;;;;;;;8.27;2.22;;;12.90;99.90;;;;;;5071686;28;20490;-79
2022/06/20 01:49:43;;;;;;;11.40;2.03;;;12.70;99.90;;;;;;5072140;28;20048;-80
2022/06/20 01:52:21;;;;;;;10.38;2.25;;;12.70;99.90;;;;;;5071281;28;20086;-79
2022/06/20 01:55:00;;;;;;;10.57;2.58;;;12.70;99.90;;;;;;5055075;28;20048;-78
2022/06/20 01:57:28;;;;;;;10.90;2.20;;;12.70;99.90;;;;;;5071590;28;20053;-79
2022/06/20 02:00:11;;;;;;;7.03;1.70;;;12.60;99.90;;;;;;5071780;28;20158;-76
2022/06/20 02:02:41;;;;;;;7.25;1.70;;;12.70;99.90;;;;;;5054984;28;20037;-79
2022/06/20 02:05:11;;;;;;;9.57;1.95;;;12.80;99.90;;;;;;5071290;28;20534;-79
2022/06/20 02:07:40;;;;;;;10.30;1.90;;;12.70;99.90;;;;;;5071183;28;20510;-80
2022/06/20 02:10:06;;;;;;;13.40;1.80;;;12.80;99.90;;;;;;5054715;28;20344;-79
2022/06/20 02:12:37;;;;;;;11.75;2.30;;;12.80;99.90;;;;;;5071120;28;20043;-78
2022/06/20 02:15:05;;;;;;;9.88;2.03;;;12.80;99.90;;;;;;5055159;28;20041;-80
2022/06/20 02:17:38;;;;;;;9.15;1.90;;;12.80;99.90;;;;;;5054274;28;20048;-77
2022/06/20 02:20:11;;;;;;;8.93;2.10;;;12.80;99.90;;;;;;5053858;28;20044;-80
2022/06/20 02:22:38;;;;;;;9.07;1.92;;;12.80;99.90;;;;;;5055042;28;20032;-79
2022/06/20 02:25:09;;;;;;;5.13;2.00;;;12.80;99.90;;;;;;5076403;28;20044;-77
2022/06/20 02:27:41;;;;;;;8.30;2.10;;;12.90;99.90;;;;;;5070670;28;20076;-78
2022/06/20 02:30:10;;;;;;;8.70;1.98;;;12.90;99.90;;;;;;5057956;28;20036;-80
2022/06/20 02:32:40;;;;;;;11.82;2.40;;;12.90;99.90;;;;;;5074541;28;20506;-80
2022/06/20 02:35:10;;;;;;;11.75;2.30;;;12.90;99.90;;;;;;5073697;28;20118;-79
2022/06/20 02:37:37;;;;;;;7.35;1.70;;;12.90;99.90;;;;;;5061195;28;20097;-77
2022/06/20 02:40:07;;;;;;;8.60;2.08;;;12.90;99.90;;;;;;5064132;28;20047;-76
2022/06/20 02:42:41;;;;;;;10.85;1.92;;;12.80;99.90;;;;;;5075453;28;20095;-78
2022/06/20 02:45:11;;;;;;;11.93;2.13;;;12.70;99.90;;;;;;5073231;28;20051;-78
2022/06/20 02:47:59;;;;;;;10.38;2.10;;;12.70;99.90;;;;;;5057083;28;20530;-79
2022/06/20 02:50:29;;;;;;;11.82;2.15;;;12.60;99.90;;;;;;5056997;28;20040;-79
2022/06/20 02:53:02;;;;;;;10.60;2.17;;;12.50;99.90;;;;;;5056831;28;20044;-79
2022/06/20 02:55:29;;;;;;;13.32;2.30;;;12.50;99.90;;;;;;5056251;28;20127;-79
2022/06/20 02:57:58;;;;;;;9.02;1.90;;;12.70;99.90;;;;;;5073828;28;20044;-79
2022/06/20 03:00:31;;;;;;;8.00;2.10;;;12.40;99.90;;;;;;5053457;28;20051;-79
2022/06/20 03:03:03;;;;;;;7.18;1.92;;;12.30;99.90;;;;;;5053518;28;20562;-79
2022/06/20 03:05:29;;;;;;;9.45;2.05;;;12.30;99.90;;;;;;5052341;28;20044;-79
2022/06/20 03:07:55;;;;;;;7.38;2.33;;;12.20;99.90;;;;;;5066208;28;20051;-80
2022/06/20 03:10:44;;;;;;;15.20;2.75;;;12.20;99.90;;;;;;5073409;28;20532;-79
2022/06/20 03:13:11;;;;;;;9.68;2.08;;;12.10;99.90;;;;;;5072674;28;20048;-80
2022/06/20 03:15:39;;;;;;;11.57;2.40;;;12.10;99.90;;;;;;5053585;28;20068;-78
2022/06/20 03:18:17;;;;;;;7.38;2.00;;;12.20;99.90;;;;;;5061968;28;20089;-78
2022/06/20 03:20:46;;;;;;;10.27;2.20;;;12.00;99.90;;;;;;5056449;28;20044;-81
2022/06/20 03:23:30;;;;;;;14.45;2.40;;;12.00;99.90;;;;;;5056215;28;20048;-80
2022/06/20 03:25:58;;;;;;;8.77;2.35;;;12.00;99.90;;;;;;5071857;28;20055;-80
2022/06/20 03:28:25;;;;;;;11.77;2.10;;;11.90;99.90;;;;;;5035493;28;20567;-77
2022/06/20 03:30:52;;;;;;;10.27;2.38;;;11.90;99.90;;;;;;5033211;28;20033;-78
2022/06/20 03:33:21;;;;;;;11.82;2.50;;;11.90;99.90;;;;;;5033955;28;20041;-81
2022/06/20 03:36:19;;;;;;;12.10;2.10;;;11.90;99.90;;;;;;5033237;28;20036;-80
2022/06/20 03:38:47;;;;;;;8.50;2.63;;;12.00;99.90;;;;;;5016529;28;20492;-78
2022/06/20 03:41:21;;;;;;;15.15;2.60;;;11.80;99.90;;;;;;5032774;28;20041;-78
2022/06/20 03:44:13;;;;;;;11.30;2.47;;;11.90;99.90;;;;;;5033081;28;20081;-77
2022/06/20 03:46:47;;;;;;;14.02;2.63;;;11.90;99.90;;;;;;4986301;28;20126;-78
2022/06/20 03:49:22;;;;;;;13.30;2.90;;;11.80;99.90;;;;;;4986603;28;20094;-79
2022/06/20 03:51:55;;;;;;;10.23;2.47;;;11.90;99.90;;;;;;4971649;28;20051;-79
2022/06/20 03:54:46;;;;;;;17.02;2.60;;;11.80;99.90;;;;;;4989687;28;20119;-79
2022/06/20 03:57:56;;;;;;;10.93;2.30;;;11.80;99.90;;;;;;4939421;28;20117;-79
2022/06/20 04:00:35;;;;;;;10.32;2.75;;;11.90;99.90;;;;;;4952136;28;20171;-76
2022/06/20 04:03:20;;;;;;;12.63;2.70;;;11.90;99.90;;;;;;4957276;28;20052;-77
2022/06/20 04:05:55;;;;;;;14.13;3.30;;;12.00;99.90;;;;;;4920692;28;20416;-80
2022/06/20 04:08:25;;;;;;;;;;;12.10;99.90;;;;;;4935185;29;20477;-79
2022/06/20 04:10:59;;;;;;;15.63;3.20;;;12.10;99.90;;;;;;4935236;29;20286;-78
2022/06/20 04:13:43;;;;;;;21.13;2.75;;;12.00;99.90;;;;;;4934846;29;20384;-79
2022/06/20 04:16:20;;;;;;;14.17;3.33;;;12.00;99.90;;;;;;4921095;29;20148;-77
2022/06/20 04:19:07;;;;;;;15.02;2.92;;;12.10;99.90;;;;;;4938646;29;20051;-77
2022/06/20 04:21:55;;;;;;;9.73;3.00;;;12.00;99.90;;;;;;4923482;29;20047;-80
2022/06/20 04:24:47;;;;;;;13.93;2.90;;;12.00;99.90;;;;;;4953535;28;20506;-79
2022/06/20 04:27:29;;;;;;;13.73;3.28;;;12.10;99.90;;;;;;4956936;28;20066;-78
2022/06/20 04:30:27;;;;;;;15.85;3.00;;;12.40;99.90;;;;;;4974875;28;20047;-79
2022/06/20 04:33:15;;;;;;;12.73;2.67;;;12.50;99.90;;;;;;4950945;28;20086;-80
2022/06/20 04:35:52;;;;;;;20.85;3.03;;;13.10;99.90;;;;;;5013645;28;20041;-81
2022/06/20 04:38:30;;;;;;;12.13;2.75;;;14.10;99.90;;;;;;5039430;28;20044;-77
2022/06/20 04:41:37;;;;;;;15.65;3.20;;;14.70;99.90;;;;;;5056338;28;20426;-79
2022/06/20 04:44:26;;;;;;;9.93;2.60;;;15.20;99.90;;;;;;5056383;28;20058;-79
2022/06/20 04:47:19;;;;;;;13.35;3.47;;;15.70;99.90;;;;;;5012509;28;20438;-79
2022/06/20 04:49:45;;;;;;;15.00;3.75;;;15.10;99.90;;;;;;4979163;28;20081;-80
2022/06/20 04:52:15;;;;;;;8.52;2.95;;;14.60;99.90;;;;;;4995319;28;20148;-81
2022/06/20 04:54:41;;;;;;;16.25;3.47;;;14.40;99.90;;;;;;4967065;28;20128;-82
2022/06/20 04:57:11;;;;;;;15.30;3.38;;;14.20;99.90;;;;;;5015773;28;20044;-81
2022/06/20 04:59:37;;;;;;;14.02;3.03;;;14.70;99.90;;;;;;5015336;28;20045;-81
2022/06/20 05:02:06;;;;;;;16.70;3.35;;;15.20;99.90;;;;;;5013917;28;20193;-80
2022/06/20 05:04:41;;;;;;;13.05;3.53;;;14.90;99.90;;;;;;4994796;28;20049;-81
2022/06/20 05:07:14;;;;;;;14.52;2.90;;;14.60;99.90;;;;;;4995269;28;20179;-80
2022/06/20 05:09:40;;;;;;;15.43;3.33;;;14.40;99.90;;;;;;5011559;28;20041;-80
2022/06/20 05:12:11;;;;;;;19.92;3.70;;;14.30;99.90;;;;;;4995115;28;20060;-79
2022/06/20 05:14:51;;;;;;;15.00;3.13;;;14.20;99.90;;;;;;4995011;28;20052;-78
2022/06/20 05:17:28;;;;;;;12.85;3.33;;;14.10;99.90;;;;;;5015563;28;20136;-79
2022/06/20 05:20:01;;;;;;;16.13;3.50;;;14.00;99.90;;;;;;5019062;28;20049;-80
2022/06/20 05:22:33;;;;;;;16.42;3.38;;;14.10;99.90;;;;;;5020078;28;20225;-78
2022/06/20 05:25:07;;;;;;;13.65;3.35;;;14.10;99.90;;;;;;5021704;28;20049;-80
2022/06/20 05:27:45;;;;;;;14.07;3.10;;;14.10;99.90;;;;;;5072689;28;20064;-77
2022/06/20 05:30:19;;;;;;;13.68;3.75;;;14.10;99.90;;;;;;5060779;28;20062;-81
2022/06/20 05:33:01;;;;;;;19.13;3.53;;;14.10;99.90;;;;;;5075696;28;20079;-80
2022/06/20 05:35:35;;;;;;;14.57;3.83;;;14.10;99.90;;;;;;5054722;28;20037;-79
2022/06/20 05:38:38;;;;;;;14.43;3.50;;;14.10;99.90;;;;;;5072012;28;20044;-80
2022/06/20 05:41:07;;;;;;;14.55;3.63;;;14.20;99.90;;;;;;5054884;28;20036;-79
2022/06/20 05:43:34;;;;;;;14.80;3.70;;;14.20;99.90;;;;;;5055241;28;20067;-80
2022/06/20 05:46:22;;;;;;;11.85;3.78;;;14.20;99.90;;;;;;5055020;28;20040;-80
2022/06/20 05:48:52;;;;;;;14.60;3.88;;;14.20;99.90;;;;;;5054782;28;20044;-81
2022/06/20 05:51:21;;;;;;;14.55;3.67;;;14.30;99.90;;;;;;5054664;28;20498;-80
2022/06/20 05:53:46;;;;;;;13.68;4.18;;;14.30;99.90;;;;;;5055293;28;20071;-81
2022/06/20 05:56:59;;;;;;;14.48;3.58;;;14.30;99.90;;;;;;5071584;28;20040;-81
2022/06/20 05:59:28;;;;;;;14.60;3.53;;;14.40;99.90;;;;;;5058076;28;20040;-77
2022/06/20 06:02:16;;;;;;;9.63;3.38;;;14.50;99.90;;;;;;5058453;28;20040;-78
2022/06/20 06:04:51;;;;;;;14.48;3.58;;;14.60;99.90;;;;;;5038033;28;20082;-81
2022/06/20 06:07:25;;;;;;;;;;;14.70;99.90;;;;;;5054848;28;20040;-80
2022/06/20 06:10:19;;;;;;;17.17;3.90;;;14.80;99.90;;;;;;5057308;28;19920;-79
2022/06/20 06:12:52;;;;;;;21.50;3.70;;;14.80;99.90;;;;;;5074836;28;20044;-78
2022/06/20 06:18:50;;;;;;;18.77;3.50;;;14.90;99.90;;;;;;5080721;28;20044;-79
2022/06/20 06:21:17;;;;;;;18.15;4.00;;;15.10;99.90;;;;;;5057351;28;20445;-78
2022/06/20 06:23:45;;;;;;;14.93;3.10;;;15.10;99.90;;;;;;5057935;28;20052;-81
2022/06/20 06:26:15;;;;;;;13.35;3.50;;;15.20;99.90;;;;;;5054193;28;20099;-80
2022/06/20 06:28:45;;;;;;;17.02;3.90;;;15.20;99.90;;;;;;5058022;28;20079;-79
2022/06/20 06:31:40;;;;;;;17.23;3.75;;;15.20;99.90;;;;;;5073802;28;20554;-80
2022/06/20 06:34:43;;;;;;;13.48;3.10;;;15.20;99.90;;;;;;5072804;28;20052;-81
2022/06/20 06:37:19;;;;;;;12.35;3.20;;;15.00;99.90;;;;;;5090755;28;20483;-81
2022/06/20 06:39:54;;;;;;;17.08;3.60;;;14.90;99.90;;;;;;5091139;28;20534;-79
2022/06/20 06:42:20;;;;;;;10.40;3.38;;;15.00;99.90;;;;;;5074728;28;20036;-80
2022/06/20 06:44:51;;;;;;;14.65;2.75;;;15.00;99.90;;;;;;5078459;28;20048;-76
2022/06/20 06:47:26;;;;;;;13.85;2.83;;;15.20;99.90;;;;;;5080669;28;20044;-77
2022/06/20 06:49:57;;;;;;;17.65;3.58;;;15.20;99.90;;;;;;5080160;28;20040;-76
2022/06/20 06:52:25;;;;;;;19.35;3.33;;;15.10;99.90;;;;;;5079681;28;20039;-77
2022/06/20 06:55:16;;;;;;;15.75;3.45;;;15.10;99.90;;;;;;5091107;28;20044;-79
2022/06/20 06:57:47;;;;;;;11.55;2.83;;;15.30;99.90;;;;;;5057457;28;20032;-78
2022/06/20 07:00:21;;;;;;;15.13;3.40;;;15.60;99.90;;;;;;5057090;28;20071;-79
2022/06/20 07:02:53;;;;;;;;;;;15.70;99.90;;;;;;5057471;28;20129;-80
2022/06/20 07:05:36;;;;;;;15.38;3.83;;;15.80;99.90;;;;;;5056506;28;19989;-78
2022/06/20 07:08:23;;;;;;;10.70;3.20;;;15.70;99.90;;;;;;5072937;28;20044;-79
2022/06/20 07:11:06;;;;;;;11.23;3.28;;;15.60;99.90;;;;;;5056867;28;20483;-78
2022/06/20 07:13:47;;;;;;;14.55;2.80;;;15.70;99.90;;;;;;5058310;28;20044;-80
2022/06/20 07:16:22;;;;;;;12.15;2.53;;;15.80;99.90;;;;;;5056763;28;20040;-80
2022/06/20 07:18:51;;;;;;;14.88;2.60;;;16.00;99.90;;;;;;5073142;28;20032;-81
2022/06/20 07:21:20;;;;;;;11.27;2.45;;;16.10;99.90;;;;;;5072732;28;20101;-78
2022/06/20 07:23:50;;;;;;;8.88;2.55;;;15.90;99.90;;;;;;5073675;28;20508;-79
2022/06/20 07:26:18;;;;;;;11.40;2.22;;;15.80;99.90;;;;;;5056508;28;20086;-78
2022/06/20 07:28:58;;;;;;;10.82;2.30;;;15.60;99.90;;;;;;5056510;28;20061;-79
2022/06/20 07:31:33;;;;;;;12.88;2.05;;;15.80;99.90;;;;;;5056932;28;20036;-80
2022/06/20 07:34:44;;;;;;;10.20;2.30;;;16.00;99.90;;;;;;5056926;28;20040;-80
2022/06/20 07:37:19;;;;;;;8.70;1.92;;;16.30;99.90;;;;;;5065303;28;20075;-80
2022/06/20 07:40:02;;;;;;;8.88;2.15;;;16.30;99.90;;;;;;5073369;28;20142;-79
2022/06/20 07:42:32;;;;;;;7.35;2.00;;;16.20;99.90;;;;;;5056476;28;20119;-78
2022/06/20 07:45:04;;;;;;;13.65;2.15;;;16.10;99.90;;;;;;5052968;28;20494;-78
2022/06/20 07:47:36;;;;;;;7.25;1.65;;;16.00;99.90;;;;;;5053702;28;20067;-78
2022/06/20 07:50:07;;;;;;;8.23;1.60;;;16.00;99.90;;;;;;5071668;28;20178;-79
2022/06/20 07:52:39;;;;;;;6.03;1.70;;;16.00;99.90;;;;;;5058172;28;20194;-81
2022/06/20 07:55:11;;;;;;;6.63;1.92;;;16.30;99.90;;;;;;5056863;28;20384;-80
2022/06/20 07:57:53;;;;;;;8.43;1.80;;;16.30;99.90;;;;;;5057285;28;20032;-79
2022/06/20 08:00:22;;;;;;;7.53;1.88;;;16.50;99.90;;;;;;5070070;28;20040;-77
2022/06/20 08:02:55;;;;;;;9.73;1.88;;;16.50;99.90;;;;;;5050058;28;20036;-78
2022/06/20 08:05:33;;;;;;;7.32;2.00;;;16.30;99.90;;;;;;5076492;28;20036;-79
2022/06/20 08:08:19;;;;;;;8.00;2.28;;;16.30;99.90;;;;;;5059977;28;20068;-81
2022/06/20 08:11:08;;;;;;;6.82;1.42;;;16.50;99.90;;;;;;5064449;28;20051;-76
2022/06/20 08:13:51;;;;;;;5.53;1.40;;;16.50;99.90;;;;;;5065278;28;20052;-77
2022/06/20 08:16:27;;;;;;;6.03;1.52;;;16.40;99.90;;;;;;5065572;28;20047;-76
2022/06/20 08:18:53;;;;;;;8.38;1.80;;;16.60;99.90;;;;;;5075322;28;20074;-78
2022/06/20 08:21:28;;;;;;;6.82;1.75;;;16.90;99.90;;;;;;5059662;28;20055;-80
2022/06/20 08:24:03;;;;;;;6.07;1.83;;;16.80;99.90;;;;;;5077484;28;20044;-79
2022/06/20 08:26:33;;;;;;;4.80;1.67;;;16.80;99.90;;;;;;5057660;28;20064;-79
2022/06/20 08:29:14;;;;;;;7.45;1.65;;;16.90;99.90;;;;;;5077030;28;20098;-79
2022/06/20 08:31:51;;;;;;;7.95;2.00;;;16.90;99.90;;;;;;5059678;28;20044;-81
2022/06/20 08:34:23;;;;;;;6.88;1.75;;;17.00;99.90;;;;;;5065520;28;20044;-79
2022/06/20 08:36:54;;;;;;;5.32;1.60;;;17.30;99.90;;;;;;5055803;28;20113;-79
2022/06/20 08:39:35;;;;;;;12.32;2.15;;;17.10;99.90;;;;;;5039678;28;20432;-81
2022/06/20 08:42:06;;;;;;;6.28;1.70;;;16.90;99.90;;;;;;5056573;28;20072;-80
2022/06/20 08:45:02;;;;;;;11.05;1.70;;;16.90;99.90;;;;;;5039256;28;20051;-78
2022/06/20 08:47:49;;;;;;;7.25;1.80;;;17.10;99.90;;;;;;5060692;28;20470;-80
2022/06/20 08:50:21;;;;;;;10.85;1.90;;;17.00;99.90;;;;;;5076345;28;20043;-79
2022/06/20 08:53:11;;;;;;;3.97;1.50;;;17.00;99.90;;;;;;5075531;28;20043;-80
2022/06/20 08:55:58;;;;;;;7.00;2.08;;;16.90;99.90;;;;;;5075428;28;20083;-80
2022/06/20 08:58:49;;;;;;;16.38;2.30;;;16.90;99.90;;;;;;5059617;28;20040;-79
2022/06/20 09:01:50;;;;;;;9.45;2.05;;;16.80;99.90;;;;;;5092236;28;20048;-78
2022/06/20 09:04:57;;;;;;;7.95;1.75;;;17.00;99.90;;;;;;5034734;28;20389;-79
2022/06/20 09:07:37;;;;;;;5.90;1.52;;;17.00;99.90;;;;;;4955972;28;20130;-79
2022/06/20 09:10:19;;;;;;;3.85;1.50;;;16.80;99.90;;;;;;4956452;28;20372;-78
2022/06/20 09:13:04;;;;;;;3.63;1.13;;;16.90;99.90;;;;;;4956218;28;20094;-79
2022/06/20 09:15:50;;;;;;;5.20;1.43;;;17.20;99.90;;;;;;4972608;28;20051;-78
2022/06/20 09:18:35;;;;;;;5.88;1.55;;;17.50;99.90;;;;;;4956819;28;20047;-80
2022/06/20 09:21:43;;;;;;;5.68;1.33;;;17.60;99.90;;;;;;4972348;28;20096;-79
2022/06/20 09:24:17;;;;;;;8.20;1.65;;;17.90;99.90;;;;;;4937464;29;20039;-79
2022/06/20 09:27:00;;;;;;;11.32;2.00;;;18.10;99.90;;;;;;4937499;29;20125;-78
2022/06/20 09:29:49;;;;;;;5.25;1.33;;;18.10;99.90;;;;;;4937112;29;20083;-80
2022/06/20 09:33:02;;;;;;;6.55;1.50;;;18.20;99.90;;;;;;4880599;29;20060;-81
2022/06/20 09:35:41;;;;;;;4.97;1.77;;;18.00;99.90;;;;;;4843100;29;20129;-79
2022/06/20 09:38:18;;;;;;;5.40;1.60;;;18.30;99.90;;;;;;4863907;29;20055;-79
2022/06/20 09:41:18;;;;;;;11.27;2.00;;;18.20;99.90;;;;;;4916178;29;20059;-79
2022/06/20 09:44:07;;;;;;;6.82;1.98;;;18.00;99.90;;;;;;4952320;28;20075;-79
2022/06/20 09:47:00;;;;;;;6.95;1.52;;;17.90;99.90;;;;;;4956255;28;20061;-78
2022/06/20 09:50:10;;;;;;;6.10;1.17;;;17.30;99.90;;;;;;4936257;29;20051;-80
2022/06/20 09:53:05;;;;;;;5.38;1.58;;;17.10;99.90;;;;;;4949601;28;20054;-79
2022/06/20 09:55:51;;;;;;;7.05;1.20;;;17.50;99.90;;;;;;4944475;28;20146;-79
2022/06/20 09:58:19;;;;;;;5.13;1.20;;;17.70;99.90;;;;;;4955673;28;20093;-78
2022/06/20 10:00:59;;;;;;;6.30;1.50;;;17.70;99.90;;;;;;4955336;28;20035;-80
2022/06/20 10:03:37;;;;;;;4.47;1.35;;;17.60;99.90;;;;;;4939586;28;20182;-78
2022/06/20 10:06:21;;;;;;;5.25;1.52;;;17.70;99.90;;;;;;4939113;28;20193;-80
2022/06/20 10:08:57;;;;;;;6.67;1.47;;;17.80;99.90;;;;;;4956782;28;20056;-81
2022/06/20 10:11:39;;;;;;;6.78;1.75;;;18.00;99.90;;;;;;5038904;28;20278;-78
2022/06/20 10:14:45;;;;;;;6.97;1.33;;;18.30;99.90;;;;;;5037687;28;20120;-78
2022/06/20 10:17:19;;;;;;;6.70;1.40;;;18.30;99.90;;;;;;5035943;28;20086;-79
2022/06/20 10:20:07;;;;;;;4.68;1.33;;;18.20;99.90;;;;;;5053692;28;20036;-80
2022/06/20 10:22:47;;;;;;;5.55;1.35;;;18.10;99.90;;;;;;5054300;28;20051;-81
2022/06/20 10:25:35;;;;;;;8.50;1.42;;;18.50;99.90;;;;;;5037904;28;20036;-80
2022/06/20 10:28:22;;;;;;;6.53;1.30;;;18.70;99.90;;;;;;5056393;28;20136;-81
2022/06/20 10:31:08;;;;;;;8.85;1.70;;;18.30;99.90;;;;;;5043384;28;20115;-79
2022/06/20 10:33:59;;;;;;;5.97;1.60;;;18.30;99.90;;;;;;5053854;28;20455;-79
2022/06/20 10:36:51;;;;;;;4.78;1.35;;;18.50;99.90;;;;;;5036724;28;20395;-79
2022/06/20 10:39:58;;;;;;;3.72;1.13;;;18.60;99.90;;;;;;5054038;28;20040;-82
2022/06/20 10:42:34;;;;;;;5.32;1.58;;;18.60;99.90;;;;;;5034426;28;20099;-80
2022/06/20 10:45:14;;;;;;;6.20;1.33;;;18.80;99.90;;;;;;5032083;28;20041;-79
2022/06/20 10:48:30;;;;;;;9.05;1.42;;;19.10;99.90;;;;;;5037042;28;20086;-80
2022/06/20 10:51:15;;;;;;;5.87;1.60;;;19.30;99.90;;;;;;4992442;28;20092;-80
2022/06/20 10:53:40;;;;;;;;;;;19.20;99.90;;;;;;4993594;28;20485;-78
2022/06/20 10:56:49;;;;;;;9.65;1.60;;;19.20;99.90;;;;;;4993683;28;19925;-80
2022/06/20 10:59:36;;;;;;;7.25;1.60;;;19.30;99.90;;;;;;4993536;28;20080;-80
2022/06/20 11:02:28;;;;;;;5.60;1.75;;;19.10;99.90;;;;;;4977492;28;20042;-80
2022/06/20 11:05:18;;;;;;;9.73;1.70;;;19.20;99.90;;;;;;4980502;28;20049;-77
2022/06/20 11:08:29;;;;;;;7.45;1.50;;;19.30;99.90;;;;;;4994749;28;20054;-77
2022/06/20 11:11:16;;;;;;;7.28;1.45;;;19.50;99.90;;;;;;5017396;28;20042;-79
2022/06/20 11:14:02;;;;;;;5.47;1.55;;;19.50;99.90;;;;;;4994760;28;20525;-79
2022/06/20 11:17:21;;;;;;;10.23;1.58;;;19.10;99.90;;;;;;4977800;28;20044;-78
2022/06/20 11:20:00;;;;;;;5.25;1.60;;;19.00;99.90;;;;;;4988834;28;20085;-81
2022/06/20 11:22:43;;;;;;;8.45;1.70;;;18.60;99.90;;;;;;4977040;28;20463;-80
2022/06/20 11:29:00;;;;;;;3.03;1.15;;;18.70;99.90;;;;;;5061003;28;20052;-80
2022/06/20 11:32:06;;;;;;;9.00;1.65;;;19.10;99.90;;;;;;5076424;28;20056;-80
2022/06/20 11:34:42;;;;;;;3.00;1.05;;;18.90;99.90;;;;;;5052794;28;20052;-79
2022/06/20 11:37:50;;;;;;;4.60;1.30;;;19.10;99.90;;;;;;5053458;28;20055;-80
2022/06/20 11:40:16;;;;;;;5.78;1.30;;;19.30;99.90;;;;;;5071253;28;20428;-81
2022/06/20 11:43:32;;;;;;;4.10;1.20;;;19.30;99.90;;;;;;5071377;28;20048;-80
2022/06/20 11:46:15;;;;;;;6.13;1.63;;;19.70;99.90;;;;;;5012540;28;20107;-79
2022/06/20 11:48:50;;;;;;;5.40;1.40;;;19.30;99.90;;;;;;5027099;28;20220;-80
2022/06/20 11:51:18;;;;;;;6.60;1.30;;;19.30;99.90;;;;;;5011875;28;20045;-79
2022/06/20 11:53:53;;;;;;;5.43;1.58;;;19.50;99.90;;;;;;5029109;28;20128;-80
2022/06/20 11:56:43;;;;;;;6.30;1.83;;;19.10;99.90;;;;;;5028702;28;20050;-80
2022/06/20 11:59:23;;;;;;;7.78;2.20;;;18.90;99.90;;;;;;5012438;28;20095;-79
2022/06/20 12:02:15;;;;;;;7.30;1.75;;;18.80;99.90;;;;;;5013180;28;20445;-80
2022/06/20 12:05:14;;;;;;;6.10;1.65;;;18.50;99.90;;;;;;4997611;28;20045;-81
2022/06/20 12:07:49;;;;;;;11.35;1.92;;;18.40;99.90;;;;;;5003957;28;20096;-79
2022/06/20 12:10:39;;;;;;;6.93;1.45;;;18.80;99.90;;;;;;5012804;28;20115;-81
2022/06/20 12:13:14;;;;;;;8.40;1.80;;;18.80;99.90;;;;;;5028631;28;20052;-79
2022/06/20 12:15:46;;;;;;;4.35;1.45;;;19.20;99.90;;;;;;5012582;28;20099;-80
2022/06/20 12:18:35;;;;;;;6.05;1.38;;;19.20;99.90;;;;;;5028528;28;20045;-80
2022/06/20 12:23:56;;;;;;;4.72;1.38;;;18.90;99.90;;;;;;5071404;28;20171;-79
2022/06/20 12:27:01;;;;;;;3.72;0.98;;;19.50;99.90;;;;;;5070091;28;20048;-80
2022/06/20 12:29:31;;;;;;;5.20;1.40;;;20.00;99.90;;;;;;5037861;28;20243;-77
2022/06/20 12:32:00;;;;;;;4.03;1.25;;;19.90;99.90;;;;;;5060854;28;20085;-79
2022/06/20 12:34:42;;;;;;;7.65;1.45;;;19.50;99.90;;;;;;5086906;28;20483;-80
2022/06/20 12:37:38;;;;;;;6.13;1.45;;;19.00;99.90;;;;;;5063792;28;20041;-79
2022/06/20 12:40:21;;;;;;;5.90;1.60;;;18.80;99.90;;;;;;4973080;28;20126;-79
2022/06/20 12:42:51;;;;;;;6.38;1.83;;;18.90;99.90;;;;;;4973334;28;20058;-80
2022/06/20 12:45:22;;;;;;;5.70;1.50;;;18.80;99.90;;;;;;4972877;28;20054;-80
2022/06/20 12:48:09;;;;;;;5.65;1.55;;;18.40;99.90;;;;;;4957127;28;20509;-79
2022/06/20 12:50:50;;;;;;;6.38;1.50;;;18.40;99.90;;;;;;4956564;28;20051;-78
2022/06/20 12:53:31;;;;;;;7.40;1.95;;;18.30;99.90;;;;;;4940685;28;20062;-79
2022/06/20 12:56:19;;;;;;;8.57;1.50;;;19.10;99.90;;;;;;4941012;28;20038;-81
2022/06/20 12:58:47;;;;;;;4.45;1.45;;;19.50;99.90;;;;;;4973411;28;20146;-81
2022/06/20 13:01:40;;;;;;;8.43;1.85;;;20.00;99.90;;;;;;4973369;28;20070;-80
2022/06/20 13:04:08;;;;;;;4.70;1.50;;;19.90;99.90;;;;;;4957078;28;20071;-80
2022/06/20 13:06:46;;;;;;;8.30;1.40;;;19.50;99.90;;;;;;4972659;28;20074;-82
2022/06/20 13:09:45;;;;;;;5.88;1.80;;;19.90;99.90;;;;;;4957182;28;20104;-81
2022/06/20 13:12:35;;;;;;;5.40;1.73;;;20.20;99.90;;;;;;4940296;28;20194;-78
2022/06/20 13:15:29;;;;;;;4.85;1.20;;;20.80;99.90;;;;;;4941085;28;20047;-79
2022/06/20 13:18:22;;;;;;;3.72;1.23;;;20.60;99.90;;;;;;5057026;28;20147;-78
2022/06/20 13:21:33;;;;;;;3.60;1.50;;;20.80;99.90;;;;;;5038441;28;20393;-82
2022/06/20 13:24:04;;;;;;;6.35;1.65;;;20.80;99.90;;;;;;5031424;28;20064;-78
2022/06/20 13:26:39;;;;;;;3.63;1.20;;;20.80;99.90;;;;;;4998579;28;20060;-81
2022/06/20 13:29:21;;;;;;;4.65;1.52;;;20.60;99.90;;;;;;5007228;28;20041;-79
2022/06/20 13:32:11;;;;;;;5.20;1.42;;;20.50;99.90;;;;;;5014390;28;20049;-82
2022/06/20 13:34:53;;;;;;;5.80;1.42;;;21.10;99.90;;;;;;5011001;28;20061;-82
2022/06/20 13:37:35;;;;;;;6.75;1.50;;;21.60;99.90;;;;;;5003330;28;20095;-81
2022/06/20 13:40:15;;;;;;;5.07;1.55;;;21.60;99.90;;;;;;5015259;28;20144;-81
2022/06/20 13:43:25;;;;;;;5.38;1.50;;;20.90;99.90;;;;;;5014844;28;20034;-81
2022/06/20 13:46:16;;;;;;;5.90;1.50;;;21.20;99.90;;;;;;4976009;28;20053;-81
2022/06/20 13:48:59;;;;;;;6.03;1.42;;;21.50;99.90;;;;;;4952479;28;20046;-80
2022/06/20 13:51:34;;;;;;;4.80;1.30;;;21.70;99.90;;;;;;4952387;29;20150;-81
2022/06/20 13:54:17;;;;;;;7.95;1.40;;;22.10;99.70;;;;;;4936831;29;20566;-80
2022/06/20 13:57:03;;;;;;;5.68;1.50;;;22.10;99.90;;;;;;4959485;29;20577;-75